createdAt,value
2023-01-30T00:02:20.597Z,10.07
2023-01-30T00:04:48.878Z,11.80
2023-01-30T00:07:17.384Z,11.13
2023-01-30T00:09:47.637Z,12.23
2023-01-30T00:12:15.856Z,12.43
2023-01-30T00:14:44.102Z,13.67
2023-01-30T00:17:13.571Z,11.00
2023-01-30T00:19:41.725Z,4.40
2023-01-30T00:22:09.876Z,10.80
2023-01-30T00:24:38.139Z,13.63
2023-01-30T00:27:06.633Z,13.23
2023-01-30T00:29:34.888Z,13.30
2023-01-30T00:32:03.621Z,16.47
2023-01-30T00:34:34.009Z,13.07
2023-01-30T00:37:08.474Z,15.67
2023-01-30T00:39:36.866Z,15.13
2023-01-30T00:42:22.666Z,13.20
2023-01-30T00:45:08.468Z,17.63
2023-01-30T00:47:37.159Z,13.70
2023-01-30T00:50:07.532Z,13.80
2023-01-30T00:52:42.019Z,16.97
2023-01-30T00:55:10.650Z,15.00
2023-01-30T00:57:38.816Z,18.10
2023-01-30T01:00:09.277Z,17.90
2023-01-30T01:02:37.735Z,15.60
2023-01-30T01:05:08.163Z,12.67
2023-01-30T01:07:36.545Z,14.13
2023-01-30T01:10:05.128Z,15.70
2023-01-30T01:12:33.261Z,14.07
2023-01-30T01:15:01.527Z,14.00
2023-01-30T01:17:29.772Z,13.10
2023-01-30T01:19:57.927Z,16.73
2023-01-30T01:22:29.057Z,19.80
2023-01-30T01:24:57.223Z,12.63
2023-01-30T01:27:25.381Z,14.40
2023-01-30T01:29:53.518Z,16.00
2023-01-30T01:32:22.095Z,15.27
2023-01-30T01:34:50.398Z,15.07
2023-01-30T01:37:18.552Z,15.67
2023-01-30T01:40:10.888Z,14.00
2023-01-30T01:42:40.338Z,16.70
2023-01-30T01:45:18.929Z,17.20
2023-01-30T01:47:58.628Z,15.43
2023-01-30T01:50:31.558Z,16.67
2023-01-30T01:53:03.090Z,15.57
2023-01-30T01:55:32.826Z,14.40
2023-01-30T01:58:05.608Z,14.97
2023-01-30T02:00:34.094Z,15.40
2023-01-30T02:03:06.662Z,14.83
2023-01-30T02:05:37.773Z,21.33
2023-01-30T02:08:10.240Z,17.10
2023-01-30T02:10:47.935Z,13.60
2023-01-30T02:13:16.927Z,13.93
2023-01-30T02:15:45.221Z,16.30
2023-01-30T02:18:14.445Z,18.07
2023-01-30T02:20:56.863Z,19.53
2023-01-30T02:24:00.244Z,17.33
2023-01-30T02:26:50.919Z,17.20
2023-01-30T02:29:52.715Z,24.87
2023-01-30T02:32:30.722Z,18.60
2023-01-30T02:35:06.390Z,18.87
2023-01-30T02:37:48.305Z,22.83
2023-01-30T02:40:29.191Z,28.83
2023-01-30T02:43:09.177Z,18.03
2023-01-30T02:45:43.511Z,24.40
2023-01-30T02:48:22.315Z,20.87
2023-01-30T02:50:57.026Z,19.63
2023-01-30T02:53:25.889Z,19.43
2023-01-30T02:55:54.086Z,20.97
2023-01-30T02:58:25.197Z,21.43
2023-01-30T03:01:07.559Z,20.73
2023-01-30T03:03:59.276Z,21.47
2023-01-30T03:06:48.059Z,15.93
2023-01-30T03:09:28.287Z,18.90
2023-01-30T03:12:04.900Z,15.33
2023-01-30T03:14:45.565Z,17.13
2023-01-30T03:17:16.082Z,20.53
2023-01-30T03:19:46.305Z,21.70
2023-01-30T03:22:14.494Z,20.03
2023-01-30T03:24:43.150Z,20.30
2023-01-30T03:27:13.427Z,23.07
2023-01-30T03:29:41.671Z,19.50
2023-01-30T03:32:10.148Z,23.23
2023-01-30T03:34:38.710Z,22.70
2023-01-30T03:37:08.259Z,23.13
2023-01-30T03:39:37.844Z,24.40
2023-01-30T03:42:07.878Z,26.00
2023-01-30T03:44:36.176Z,19.47
2023-01-30T03:47:04.331Z,26.00
2023-01-30T03:49:33.263Z,25.13
2023-01-30T03:52:01.472Z,21.07
2023-01-30T03:54:31.273Z,21.60
2023-01-30T03:57:00.371Z,24.40
2023-01-30T03:59:28.611Z,21.77
2023-01-30T04:02:05.141Z,18.47
2023-01-30T04:04:34.209Z,24.30
2023-01-30T04:07:04.394Z,22.43
2023-01-30T04:09:35.712Z,24.57
2023-01-30T04:12:04.069Z,24.63
2023-01-30T04:14:37.418Z,22.53
2023-01-30T04:17:16.126Z,19.47
2023-01-30T04:20:08.702Z,22.70
2023-01-30T04:22:38.617Z,23.23
2023-01-30T04:25:10.117Z,22.97
2023-01-30T04:27:38.432Z,24.20
2023-01-30T04:30:16.488Z,20.63
2023-01-30T04:32:45.237Z,20.47
2023-01-30T04:35:13.436Z,24.57
2023-01-30T04:37:42.519Z,24.50
2023-01-30T04:40:15.208Z,23.60
2023-01-30T04:42:43.387Z,21.97
2023-01-30T04:45:47.499Z,20.17
2023-01-30T04:48:16.775Z,21.83
2023-01-30T04:50:49.251Z,22.83
2023-01-30T04:53:18.523Z,24.10
2023-01-30T04:55:48.492Z,22.97
2023-01-30T04:58:16.737Z,25.20
2023-01-30T05:00:44.952Z,21.50
2023-01-30T05:03:13.461Z,25.57
2023-01-30T05:05:41.590Z,26.60
2023-01-30T05:08:10.357Z,21.90
2023-01-30T05:10:38.935Z,23.37
2023-01-30T05:13:08.546Z,22.63
2023-01-30T05:15:36.717Z,18.77
2023-01-30T05:18:05.091Z,21.33
2023-01-30T05:20:33.302Z,25.93
2023-01-30T05:23:01.467Z,27.07
2023-01-30T05:25:29.785Z,22.17
2023-01-30T05:27:58.097Z,20.87
2023-01-30T05:30:27.611Z,25.47
2023-01-30T05:32:55.809Z,28.30
2023-01-30T05:35:24.001Z,22.53
2023-01-30T05:37:52.522Z,21.37
2023-01-30T05:40:20.663Z,22.30
2023-01-30T05:42:48.845Z,26.17
2023-01-30T05:45:17.339Z,26.97
2023-01-30T05:47:51.841Z,22.83
2023-01-30T05:50:20.076Z,21.13
2023-01-30T05:52:48.458Z,23.33
2023-01-30T05:55:17.110Z,27.87
2023-01-30T05:57:45.344Z,23.40
2023-01-30T06:00:14.537Z,25.33
2023-01-30T06:02:42.749Z,24.03
2023-01-30T06:05:12.235Z,29.20
2023-01-30T06:07:40.412Z,25.50
2023-01-30T06:10:09.444Z,26.80
2023-01-30T06:12:37.793Z,25.53
2023-01-30T06:15:07.291Z,18.77
2023-01-30T06:17:35.468Z,25.50
2023-01-30T06:20:04.228Z,23.57
2023-01-30T06:22:33.789Z,20.33
2023-01-30T06:25:01.945Z,25.30
2023-01-30T06:27:30.101Z,12.00
2023-01-30T06:29:58.266Z,23.70
2023-01-30T06:32:26.410Z,25.87
2023-01-30T06:34:54.541Z,12.80
2023-01-30T06:37:22.693Z,25.87
2023-01-30T06:39:52.169Z,22.20
2023-01-30T06:42:20.326Z,24.23
2023-01-30T06:44:48.451Z,23.07
2023-01-30T06:47:16.638Z,25.10
2023-01-30T06:49:44.805Z,24.90
2023-01-30T06:52:12.945Z,25.43
2023-01-30T06:54:41.120Z,25.57
2023-01-30T06:57:10.685Z,28.73
2023-01-30T06:59:39.074Z,21.73
2023-01-30T07:02:07.696Z,23.70
2023-01-30T07:04:36.027Z,27.83
2023-01-30T07:07:05.283Z,25.83
2023-01-30T07:09:34.997Z,27.00
2023-01-30T07:12:03.545Z,28.53
2023-01-30T07:14:33.411Z,27.83
2023-01-30T07:17:01.590Z,23.00
2023-01-30T07:19:29.751Z,27.10
2023-01-30T07:21:57.863Z,23.23
2023-01-30T07:24:26.479Z,26.67
2023-01-30T07:26:54.619Z,28.67
2023-01-30T07:29:22.729Z,26.30
2023-01-30T07:31:52.608Z,24.60
2023-01-30T07:34:21.014Z,24.43
2023-01-30T07:36:49.131Z,25.50
2023-01-30T07:39:17.252Z,28.03
2023-01-30T07:41:45.405Z,19.20
2023-01-30T07:44:13.813Z,22.53
2023-01-30T07:46:41.992Z,27.07
2023-01-30T07:49:11.705Z,27.20
2023-01-30T07:51:39.836Z,26.73
2023-01-30T07:54:08.012Z,25.83
2023-01-30T07:56:36.213Z,24.23
2023-01-30T07:59:05.689Z,25.43
2023-01-30T08:01:33.896Z,23.30
2023-01-30T08:04:02.065Z,24.70
2023-01-30T08:06:31.746Z,23.90
2023-01-30T08:08:59.903Z,24.40
2023-01-30T08:11:28.174Z,17.00
2023-01-30T08:13:56.304Z,24.60
2023-01-30T08:16:24.565Z,26.03
2023-01-30T08:18:52.757Z,19.87
2023-01-30T08:21:20.884Z,12.97
2023-01-30T08:23:50.935Z,19.63
2023-01-30T08:26:19.401Z,20.37
2023-01-30T08:28:47.569Z,19.40
2023-01-30T08:31:17.570Z,16.97
2023-01-30T08:33:46.095Z,23.30
2023-01-30T08:36:14.597Z,21.43
2023-01-30T08:38:42.748Z,17.97
2023-01-30T08:41:12.214Z,17.27
2023-01-30T08:43:40.362Z,15.67
2023-01-30T08:46:08.700Z,26.17
2023-01-30T08:48:49.092Z,23.00
2023-01-30T08:51:18.872Z,17.97
2023-01-30T08:53:47.077Z,17.60
2023-01-30T08:56:16.605Z,17.80
2023-01-30T08:58:46.563Z,18.23
2023-01-30T09:01:14.797Z,18.73
2023-01-30T09:03:43.584Z,17.10
2023-01-30T09:06:12.055Z,13.00
2023-01-30T09:08:40.274Z,19.70
2023-01-30T09:11:08.594Z,16.17
2023-01-30T09:13:40.951Z,19.43
2023-01-30T09:16:09.135Z,17.57
2023-01-30T09:18:39.711Z,22.27
2023-01-30T09:21:08.517Z,12.73
2023-01-30T09:23:37.010Z,17.10
2023-01-30T09:26:06.699Z,15.67
2023-01-30T09:28:36.140Z,17.67
2023-01-30T09:31:06.606Z,17.77
2023-01-30T09:33:34.878Z,17.10
2023-01-30T09:36:03.035Z,16.97
2023-01-30T09:38:31.211Z,20.57
2023-01-30T09:41:19.380Z,18.00
2023-01-30T09:44:05.911Z,16.80
2023-01-30T09:46:47.460Z,17.40
2023-01-30T09:49:27.024Z,13.20
2023-01-30T09:52:04.534Z,17.57
2023-01-30T09:54:37.612Z,17.97
2023-01-30T09:57:21.281Z,15.27
2023-01-30T09:59:57.985Z,16.00
2023-01-30T10:02:36.674Z,11.30
2023-01-30T10:05:06.539Z,11.70
2023-01-30T10:07:58.643Z,15.50
2023-01-30T10:10:38.409Z,15.97
2023-01-30T10:13:14.770Z,9.10
2023-01-30T10:15:53.191Z,12.87
2023-01-30T10:18:44.962Z,18.83
2023-01-30T10:21:24.704Z,10.93
2023-01-30T10:24:12.140Z,12.97
2023-01-30T10:26:42.710Z,11.57
2023-01-30T10:29:15.710Z,15.40
2023-01-30T10:31:47.582Z,12.10
2023-01-30T10:34:21.961Z,10.97
2023-01-30T10:36:57.168Z,11.53
2023-01-30T10:39:32.510Z,11.10
2023-01-30T10:42:10.928Z,12.17
2023-01-30T10:44:41.603Z,11.90
2023-01-30T10:47:38.054Z,9.03
2023-01-30T10:50:18.566Z,7.20
2023-01-30T10:52:56.720Z,5.70
2023-01-30T10:55:37.799Z,6.63
2023-01-30T10:58:17.383Z,5.27
2023-01-30T11:00:51.940Z,8.13
2023-01-30T11:03:29.327Z,7.43
2023-01-30T11:06:02.263Z,10.80
2023-01-30T11:08:33.136Z,5.33
2023-01-30T11:11:01.582Z,5.20
2023-01-30T11:13:31.926Z,9.73
2023-01-30T11:16:05.163Z,6.10
2023-01-30T11:19:18.152Z,14.27
2023-01-30T11:21:42.075Z,7.07
2023-01-30T11:24:17.951Z,9.83
2023-01-30T11:26:48.301Z,5.80
2023-01-30T11:29:28.784Z,4.93
2023-01-30T11:31:57.353Z,5.10
2023-01-30T11:34:25.747Z,3.43
2023-01-30T11:37:12.680Z,8.10
2023-01-30T11:39:49.752Z,5.67
2023-01-30T11:42:21.209Z,8.73
2023-01-30T11:45:10.890Z,5.93
2023-01-30T11:47:57.312Z,6.23
2023-01-30T11:50:37.075Z,9.70
2023-01-30T11:53:21.623Z,9.07
2023-01-30T11:56:03.007Z,4.13
2023-01-30T11:58:35.392Z,18.13
2023-01-30T12:01:05.304Z,10.57
2023-01-30T12:03:34.542Z,5.03
2023-01-30T12:06:03.712Z,6.17
2023-01-30T12:08:42.744Z,9.00
2023-01-30T12:11:32.753Z,7.50
2023-01-30T12:14:16.517Z,7.43
2023-01-30T12:16:55.480Z,5.87
2023-01-30T12:19:40.857Z,9.97
2023-01-30T12:22:22.156Z,9.17
2023-01-30T12:24:59.556Z,6.80
2023-01-30T12:27:44.700Z,5.73
2023-01-30T12:30:25.258Z,4.27
2023-01-30T12:32:56.796Z,12.53
2023-01-30T12:35:35.387Z,9.23
2023-01-30T12:38:14.888Z,5.77
2023-01-30T12:40:56.315Z,8.47
2023-01-30T12:43:35.616Z,5.87
2023-01-30T12:46:18.295Z,2.87
2023-01-30T12:49:08.140Z,9.43
2023-01-30T12:51:52.921Z,6.37
2023-01-30T12:54:37.337Z,3.87
2023-01-30T12:57:16.401Z,5.77
2023-01-30T12:59:51.598Z,2.90
2023-01-30T13:02:43.993Z,6.10
2023-01-30T13:05:22.609Z,8.10
2023-01-30T13:08:07.239Z,15.20
2023-01-30T13:10:45.786Z,7.20
2023-01-30T13:13:22.124Z,5.10
2023-01-30T13:15:59.492Z,7.33
2023-01-30T13:18:33.648Z,11.20
2023-01-30T13:21:09.092Z,4.10
2023-01-30T13:23:49.842Z,11.40
2023-01-30T13:26:22.055Z,17.23
2023-01-30T13:28:56.880Z,3.90
2023-01-30T13:31:29.052Z,9.47
2023-01-30T13:34:06.249Z,4.27
2023-01-30T13:36:42.448Z,4.93
2023-01-30T13:39:15.475Z,4.77
2023-01-30T13:41:49.015Z,5.00
2023-01-30T13:44:23.080Z,3.17
2023-01-30T13:46:53.859Z,8.70
2023-01-30T13:49:26.715Z,5.50
2023-01-30T13:52:03.393Z,8.70
2023-01-30T13:54:47.490Z,4.17
2023-01-30T13:57:26.768Z,7.50
2023-01-30T14:00:28.675Z,5.37
2023-01-30T14:03:24.437Z,5.40
2023-01-30T14:06:05.780Z,3.73
2023-01-30T14:08:39.475Z,6.00
2023-01-30T14:11:38.008Z,8.63
2023-01-30T14:14:23.880Z,4.00
2023-01-30T14:16:54.349Z,4.70
2023-01-30T14:19:33.337Z,7.00
2023-01-30T14:22:04.989Z,2.93
2023-01-30T14:24:33.507Z,5.73
2023-01-30T14:27:03.512Z,8.43
2023-01-30T14:29:54.632Z,4.70
2023-01-30T14:32:54.305Z,5.43
2023-01-30T14:35:28.606Z,6.10
2023-01-30T14:38:11.695Z,3.97
2023-01-30T14:41:10.146Z,0.40
2023-01-30T14:43:54.164Z,29.17
2023-01-30T14:46:54.406Z,1.67
2023-01-30T14:49:30.376Z,1.83
2023-01-30T14:52:00.546Z,5.70
2023-01-30T14:54:41.842Z,1.60
2023-01-30T14:57:27.630Z,2.10
2023-01-30T15:00:14.972Z,1.20
2023-01-30T15:02:48.941Z,3.70
2023-01-30T15:05:20.750Z,2.83
2023-01-30T15:07:54.793Z,1.27
2023-01-30T15:10:48.583Z,3.90
2023-01-30T15:13:34.019Z,5.27
2023-01-30T15:16:13.495Z,2.97
2023-01-30T15:19:03.693Z,4.73
2023-01-30T15:21:46.866Z,1.47
2023-01-30T15:24:33.792Z,0.50
2023-01-30T15:27:10.492Z,1.30
2023-01-30T15:29:59.460Z,1.83
2023-01-30T15:32:30.257Z,1.40
2023-01-30T15:35:00.884Z,2.70
2023-01-30T15:37:35.031Z,2.00
2023-01-30T15:40:21.704Z,1.13
2023-01-30T15:42:53.602Z,0.60
2023-01-30T15:45:33.148Z,2.20
2023-01-30T15:48:24.062Z,6.83
2023-01-30T15:50:54.665Z,2.90
2023-01-30T15:53:28.925Z,0.70
2023-01-30T15:56:01.357Z,2.80
2023-01-30T15:58:31.002Z,1.50
2023-01-30T16:01:01.967Z,1.33
2023-01-30T16:03:35.276Z,2.60
2023-01-30T16:06:04.287Z,2.73
2023-01-30T16:08:34.680Z,1.27
2023-01-30T16:11:04.644Z,1.73
2023-01-30T16:13:33.307Z,5.00
2023-01-30T16:16:04.927Z,5.87
2023-01-30T16:18:36.798Z,5.03
2023-01-30T16:21:08.291Z,2.20
2023-01-30T16:23:39.724Z,3.63
2023-01-30T16:26:14.488Z,8.70
2023-01-30T16:28:42.888Z,4.50
2023-01-30T16:31:12.112Z,7.80
2023-01-30T16:33:40.515Z,5.20
2023-01-30T16:36:32.879Z,4.93
2023-01-30T16:39:01.667Z,6.60
2023-01-30T16:41:34.249Z,2.50
2023-01-30T16:44:10.835Z,2.80
2023-01-30T16:46:48.533Z,5.47
2023-01-30T16:49:21.201Z,3.93
2023-01-30T16:51:51.597Z,6.40
2023-01-30T16:54:23.987Z,2.63
2023-01-30T16:56:56.571Z,2.13
2023-01-30T16:59:31.322Z,4.20
2023-01-30T17:02:00.982Z,5.00
2023-01-30T17:04:31.176Z,0.93
2023-01-30T17:07:04.205Z,3.47
2023-01-30T17:09:37.239Z,4.00
2023-01-30T17:12:38.894Z,4.27
2023-01-30T17:15:33.137Z,3.13
2023-01-30T17:18:01.636Z,6.37
2023-01-30T17:20:38.037Z,2.80
2023-01-30T17:23:10.202Z,5.53
2023-01-30T17:25:42.851Z,4.50
2023-01-30T17:28:19.088Z,5.63
2023-01-30T17:30:47.402Z,4.83
2023-01-30T17:33:15.572Z,1.80
2023-01-30T17:35:44.456Z,1.87
2023-01-30T17:38:12.677Z,2.97
2023-01-30T17:40:41.126Z,7.10
2023-01-30T17:43:11.433Z,2.23
2023-01-30T17:45:41.269Z,7.13
2023-01-30T17:48:11.428Z,3.07
2023-01-30T17:50:39.599Z,3.23
2023-01-30T17:53:07.786Z,4.93
2023-01-30T17:55:36.609Z,2.27
2023-01-30T17:58:04.933Z,3.70
2023-01-30T18:00:33.152Z,2.57
2023-01-30T18:03:02.871Z,7.40
2023-01-30T18:05:31.323Z,6.47
2023-01-30T18:07:59.606Z,6.83
2023-01-30T18:10:27.989Z,3.63
2023-01-30T18:12:56.139Z,6.40
2023-01-30T18:15:24.370Z,3.70
2023-01-30T18:17:54.993Z,3.40
2023-01-30T18:20:24.506Z,6.20
2023-01-30T18:22:52.771Z,7.83
2023-01-30T18:25:21.411Z,8.33
2023-01-30T18:27:50.000Z,4.47
2023-01-30T18:30:19.749Z,5.00
2023-01-30T18:32:53.824Z,4.63
2023-01-30T18:35:24.096Z,7.57
2023-01-30T18:37:52.618Z,4.87
2023-01-30T18:40:21.758Z,4.03
2023-01-30T18:42:50.295Z,12.53
2023-01-30T18:45:18.799Z,5.50
2023-01-30T18:47:46.960Z,9.80
2023-01-30T18:50:15.133Z,2.40
2023-01-30T18:52:44.572Z,8.03
2023-01-30T18:55:12.737Z,4.10
2023-01-30T18:57:40.913Z,5.03
2023-01-30T19:00:10.337Z,7.33
2023-01-30T19:02:38.588Z,8.23
2023-01-30T19:05:07.674Z,4.67
2023-01-30T19:07:36.515Z,9.10
2023-01-30T19:10:06.583Z,11.10
2023-01-30T19:12:52.314Z,10.53
2023-01-30T19:15:20.492Z,15.00
2023-01-30T19:17:48.612Z,11.97
2023-01-30T19:20:17.728Z,8.57
2023-01-30T19:22:46.164Z,7.50
2023-01-30T19:25:15.816Z,6.13
2023-01-30T19:27:44.141Z,12.03
2023-01-30T19:30:13.473Z,9.03
2023-01-30T19:32:41.865Z,10.73
2023-01-30T19:35:10.927Z,4.63
2023-01-30T19:37:39.495Z,11.90
2023-01-30T19:40:10.990Z,5.93
2023-01-30T19:42:44.126Z,6.43
2023-01-30T19:45:13.533Z,6.53
2023-01-30T19:47:41.752Z,8.37
2023-01-30T19:50:11.300Z,4.47
2023-01-30T19:52:40.795Z,9.60
2023-01-30T19:55:09.898Z,12.23
2023-01-30T19:57:39.018Z,10.43
2023-01-30T20:00:11.044Z,10.13
2023-01-30T20:02:39.331Z,17.50
2023-01-30T20:05:09.022Z,10.93
2023-01-30T20:07:38.494Z,7.73
2023-01-30T20:10:07.260Z,6.93
2023-01-30T20:12:35.978Z,7.50
2023-01-30T20:15:05.541Z,8.27
2023-01-30T20:17:35.252Z,4.70
2023-01-30T20:20:04.838Z,3.73
2023-01-30T20:22:32.984Z,11.63
2023-01-30T20:25:01.102Z,11.63
2023-01-30T20:27:29.754Z,9.40
2023-01-30T20:29:57.910Z,7.67
2023-01-30T20:32:26.108Z,12.87
2023-01-30T20:34:55.793Z,14.27
2023-01-30T20:37:25.785Z,11.87
2023-01-30T20:39:55.323Z,7.60
2023-01-30T20:42:24.567Z,11.17
2023-01-30T20:44:52.763Z,11.93
2023-01-30T20:47:21.945Z,17.47
2023-01-30T20:49:50.148Z,9.97
2023-01-30T20:52:20.011Z,8.73
2023-01-30T20:54:48.288Z,15.33
2023-01-30T20:57:16.618Z,6.10
2023-01-30T20:59:45.201Z,2.97
2023-01-30T21:02:13.838Z,4.20
2023-01-30T21:04:42.381Z,14.80
2023-01-30T21:07:10.579Z,5.77
2023-01-30T21:09:40.126Z,10.77
2023-01-30T21:12:08.450Z,15.90
2023-01-30T21:14:36.971Z,5.13
2023-01-30T21:17:05.142Z,18.10
2023-01-30T21:19:33.554Z,8.70
2023-01-30T21:22:07.422Z,4.97
2023-01-30T21:24:35.861Z,7.40
2023-01-30T21:27:05.382Z,10.33
2023-01-30T21:29:33.597Z,5.00
2023-01-30T21:32:01.978Z,12.27
2023-01-30T21:34:30.159Z,6.57
2023-01-30T21:37:16.012Z,14.20
2023-01-30T21:40:02.096Z,4.97
2023-01-30T21:42:49.246Z,8.80
2023-01-30T21:45:20.720Z,9.03
2023-01-30T21:47:51.533Z,9.00
2023-01-30T21:50:19.886Z,13.20
2023-01-30T21:52:48.122Z,12.37
2023-01-30T21:55:16.458Z,3.90
2023-01-30T21:57:45.971Z,9.30
2023-01-30T22:00:15.313Z,9.70
2023-01-30T22:02:43.526Z,9.57
2023-01-30T22:05:11.893Z,6.57
2023-01-30T22:07:40.215Z,7.87
2023-01-30T22:10:09.357Z,11.07
2023-01-30T22:12:40.032Z,1.87
2023-01-30T22:15:10.858Z,7.63
2023-01-30T22:17:39.071Z,7.10
2023-01-30T22:20:09.993Z,19.57
2023-01-30T22:22:38.628Z,3.00
2023-01-30T22:25:07.811Z,9.43
2023-01-30T22:27:36.194Z,6.97
2023-01-30T22:30:04.673Z,3.17
2023-01-30T22:32:34.490Z,8.53
2023-01-30T22:35:02.651Z,4.63
2023-01-30T22:37:30.991Z,6.60
2023-01-30T22:39:59.486Z,11.80
2023-01-30T22:42:27.612Z,4.90
2023-01-30T22:44:55.769Z,5.63
2023-01-30T22:47:23.982Z,6.33
2023-01-30T22:49:53.435Z,11.33
2023-01-30T22:52:21.773Z,5.33
2023-01-30T22:54:50.010Z,8.67
2023-01-30T22:57:18.130Z,3.70
2023-01-30T22:59:46.260Z,11.90
2023-01-30T23:02:14.455Z,4.50
2023-01-30T23:04:42.809Z,6.70
2023-01-30T23:07:14.247Z,12.57
2023-01-30T23:09:42.480Z,12.97
2023-01-30T23:12:28.268Z,4.13
2023-01-30T23:14:56.436Z,5.80
2023-01-30T23:17:42.184Z,4.30
2023-01-30T23:20:11.718Z,11.30
2023-01-30T23:22:41.198Z,7.80
2023-01-30T23:25:10.739Z,14.20
2023-01-30T23:27:39.082Z,8.50
2023-01-30T23:30:08.294Z,13.83
2023-01-30T23:32:36.592Z,5.60
2023-01-30T23:35:05.193Z,6.20
2023-01-30T23:37:47.549Z,5.03
2023-01-30T23:40:17.505Z,13.50
2023-01-30T23:42:45.631Z,4.83
2023-01-30T23:45:13.794Z,5.27
2023-01-30T23:47:41.909Z,5.90
2023-01-30T23:50:11.583Z,9.47
2023-01-30T23:52:39.934Z,7.90
2023-01-30T23:55:08.697Z,6.20
2023-01-30T23:57:38.508Z,10.67
